Hafnia Victoria — 9V3232 — position and weather

sailwx.info

Track history (hours):
 
Tides and Currents Weather Stations Pressure Air Temp Water Temp Dewpoint Dewpoint Depression Visibility Wind Speed Wind Dir Waves Ship Positions

Hafnia Victoria

Last reported at 2017-Dec-10 05:28 UTC. Time now 2017-Dec-12 12:33 UTC.
Position N 39°31' W 009°57'.

Length 182 m; draft 6.5 m.

Type: Ship. MMSI: 566024000.

Date/timePositionNaut miles runAvg speedWind from/ knotsBaromVisibWave heightAir tempDewpointWater temp
2017-Dec-10 05:28N 39°31' W 009°57'714.8
2017-Dec-10 05:00N 39°24' W 009°57'715.1
2017-Dec-10 04:30N 39°17' W 009°57'714.9
2017-Dec-10 04:00N 39°09' W 009°57'714.7
2017-Dec-10 03:30N 39°02' W 009°57'815.1
2017-Dec-10 03:00N 38°54' W 009°57'715.0
2017-Dec-10 02:31N 38°47' W 009°57'714.7
2017-Dec-10 02:01N 38°40' W 009°56'714.5
2017-Dec-10 01:31N 38°33' W 009°54'714.9
2017-Dec-10 01:00N 38°25' W 009°52'714.6
2017-Dec-10 00:30N 38°18' W 009°50'714.1
2017-Dec-09 23:58N 38°11' W 009°48'714.1
2017-Dec-09 23:30N 38°04' W 009°46'  
2017-Dec-03 16:39N 36°29' E 014°28'210.3
2017-Dec-03 16:30N 36°28' E 014°30'612.0
2017-Dec-03 16:01N 36°26' E 014°37'38912.4
2017-Dec-02 08:35N 36°05' E 022°39'211.1
2017-Dec-02 08:25N 36°04' E 022°41'1611.0
2017-Dec-02 06:59N 36°03' E 023°01'510.5
2017-Dec-02 06:30N 36°03' E 023°07'5 9.5
2017-Dec-02 06:01N 36°05' E 023°12'510.3
2017-Dec-02 05:30N 36°09' E 023°16'1411.2
2017-Dec-02 04:14N 36°19' E 023°28'311.6
2017-Dec-02 04:01N 36°21' E 023°30'612.1
2017-Dec-02 03:31N 36°26' E 023°35'612.3
2017-Dec-02 03:01N 36°31' E 023°40'612.7
2017-Dec-02 02:30N 36°35' E 023°45'612.5
2017-Dec-02 02:01N 36°40' E 023°50'712.4
2017-Dec-02 01:28N 36°45' E 023°56'712.3
2017-Dec-02 00:53N 36°51' E 024°02'512.5
2017-Dec-02 00:30N 36°55' E 024°04'612.6
2017-Dec-02 00:01N 37°01' E 024°06'612.4
2017-Dec-01 23:30N 37°07' E 024°09'812.5
2017-Dec-01 22:54N 37°14' E 024°12'512.7
2017-Dec-01 22:31N 37°19' E 024°14'612.4
2017-Dec-01 22:00N 37°25' E 024°17'612.2
2017-Dec-01 21:31N 37°30' E 024°21'612.6
2017-Dec-01 21:01N 37°34' E 024°26'611.8
2017-Dec-01 20:31N 37°40' E 024°29'612.4
2017-Dec-01 20:01N 37°46' E 024°31'612.2
2017-Dec-01 19:31N 37°52' E 024°33'  
Track history (hours):
 
Tides and Currents Weather Stations Pressure Air Temp Water Temp Dewpoint Dewpoint Depression Visibility Wind Speed Wind Dir Waves Ship Positions

Hafnia Victoria

Last reported at 2017-Dec-10 05:28 UTC. Time now 2017-Dec-12 12:33 UTC.
Position N 39°31' W 009°57'.

Length 182 m; draft 6.5 m.

Type: Ship. MMSI: 566024000.

Date/timePositionNaut miles runAvg speedWind from/ knotsBaromVisibWave heightAir tempDewpointWater temp
2017-Dec-10 05:28N 39°31' W 009°57'714.8
2017-Dec-10 05:00N 39°24' W 009°57'715.1
2017-Dec-10 04:30N 39°17' W 009°57'714.9
2017-Dec-10 04:00N 39°09' W 009°57'714.7
2017-Dec-10 03:30N 39°02' W 009°57'815.1
2017-Dec-10 03:00N 38°54' W 009°57'715.0
2017-Dec-10 02:31N 38°47' W 009°57'714.7
2017-Dec-10 02:01N 38°40' W 009°56'714.5
2017-Dec-10 01:31N 38°33' W 009°54'714.9
2017-Dec-10 01:00N 38°25' W 009°52'714.6
2017-Dec-10 00:30N 38°18' W 009°50'714.1
2017-Dec-09 23:58N 38°11' W 009°48'714.1
2017-Dec-09 23:30N 38°04' W 009°46'  
2017-Dec-03 16:39N 36°29' E 014°28'210.3
2017-Dec-03 16:30N 36°28' E 014°30'612.0
2017-Dec-03 16:01N 36°26' E 014°37'38912.4
2017-Dec-02 08:35N 36°05' E 022°39'211.1
2017-Dec-02 08:25N 36°04' E 022°41'1611.0
2017-Dec-02 06:59N 36°03' E 023°01'510.5
2017-Dec-02 06:30N 36°03' E 023°07'5 9.5
2017-Dec-02 06:01N 36°05' E 023°12'510.3
2017-Dec-02 05:30N 36°09' E 023°16'1411.2
2017-Dec-02 04:14N 36°19' E 023°28'311.6
2017-Dec-02 04:01N 36°21' E 023°30'612.1
2017-Dec-02 03:31N 36°26' E 023°35'612.3
2017-Dec-02 03:01N 36°31' E 023°40'612.7
2017-Dec-02 02:30N 36°35' E 023°45'612.5
2017-Dec-02 02:01N 36°40' E 023°50'712.4
2017-Dec-02 01:28N 36°45' E 023°56'712.3
2017-Dec-02 00:53N 36°51' E 024°02'512.5
2017-Dec-02 00:30N 36°55' E 024°04'612.6
2017-Dec-02 00:01N 37°01' E 024°06'612.4
2017-Dec-01 23:30N 37°07' E 024°09'812.5
2017-Dec-01 22:54N 37°14' E 024°12'512.7
2017-Dec-01 22:31N 37°19' E 024°14'612.4
2017-Dec-01 22:00N 37°25' E 024°17'612.2
2017-Dec-01 21:31N 37°30' E 024°21'612.6
2017-Dec-01 21:01N 37°34' E 024°26'611.8
2017-Dec-01 20:31N 37°40' E 024°29'612.4
2017-Dec-01 20:01N 37°46' E 024°31'612.2
2017-Dec-01 19:31N 37°52' E 024°33'  

Dump ship's entire track history